Time,TemperatureF,DewpointF,PressureIn,WindDirection,WindDirectionDegrees,WindSpeedMPH,WindSpeedGustMPH,Humidity,HourlyPrecipIn,Conditions,Clouds,dailyrainin,SoftwareType,DateUTC
2013-02-01 06:44:00,21.2,15.4,29.76,WNW,289,13.0,20.0,78,0.00,RA,FEW,0.00,WeatherDisplay:10.37,2013-02-01 11:44:00,
2013-02-01 06:54:00,13.5,8.2,29.97,West,263,18.0,18.0,79,0.00,CLR,FEW,0.00,WeatherDisplay:10.37,2013-02-01 11:54:00,
2013-02-01 06:59:00,13.3,8.0,29.97,WSW,241,16.0,16.0,79,0.00,CLR,FEW,0.00,WeatherDisplay:10.37,2013-02-01 11:59:00,
2013-02-01 07:04:00,13.1,7.8,29.97,WSW,254,15.0,15.0,79,0.00,CLR,FEW,0.00,WeatherDisplay:10.37,2013-02-01 12:04:00,
2013-02-01 07:09:00,13.3,8.0,29.97,West,266,13.0,15.0,79,0.00,CLR,FEW,0.00,WeatherDisplay:10.37,2013-02-01 12:09:00,
2013-02-01 07:19:00,13.1,8.1,30.00,West,262,14.0,17.0,80,0.00,CLR,FEW,0.00,WeatherDisplay:10.37,2013-02-01 12:19:00,
2013-02-01 07:24:00,12.9,7.9,30.00,West,267,14.0,15.0,80,0.00,CLR,FEW,0.00,WeatherDisplay:10.37,2013-02-01 12:24:00,
2013-02-01 07:29:00,12.7,7.5,30.00,West,264,14.0,15.0,79,0.00,CLR,FEW,0.00,WeatherDisplay:10.37,2013-02-01 12:29:00,
2013-02-01 07:34:00,12.9,7.9,30.00,WSW,247,14.0,16.0,80,0.00,CLR,FEW,0.00,WeatherDisplay:10.37,2013-02-01 12:34:00,
2013-02-01 07:39:00,12.9,7.9,30.00,WSW,250,14.0,18.0,80,0.00,CLR,FEW,0.00,WeatherDisplay:10.37,2013-02-01 12:39:00,
2013-02-01 07:44:00,13.1,8.1,30.00,West,259,14.0,18.0,80,0.00,CLR,FEW,0.00,WeatherDisplay:10.37,2013-02-01 12:44:00,
2013-02-01 07:49:00,12.9,7.9,30.00,WSW,253,12.0,12.0,80,0.00,CLR,FEW,0.00,WeatherDisplay:10.37,2013-02-01 12:49:00,
2013-02-01 07:59:00,12.6,7.6,30.03,West,267,12.0,16.0,80,0.00,CLR,FEW,0.00,WeatherDisplay:10.37,2013-02-01 12:59:00,
2013-02-01 08:04:00,13.1,8.4,30.03,West,270,10.0,14.0,81,0.00,CLR,FEW,0.00,WeatherDisplay:10.37,2013-02-01 13:04:00,
2013-02-01 08:09:00,13.3,8.5,30.03,WSW,250,9.0,9.0,81,0.00,CLR,FEW,0.00,WeatherDisplay:10.37,2013-02-01 13:09:00,
2013-02-01 08:14:00,13.3,8.5,30.03,WSW,239,8.0,13.0,81,0.00,CLR,FEW,0.00,WeatherDisplay:10.37,2013-02-01 13:14:00,
2013-02-01 08:19:00,12.6,7.6,30.03,West,260,7.0,14.0,80,0.00,CLR,FEW,0.00,WeatherDisplay:10.37,2013-02-01 13:19:00,
2013-02-01 08:29:00,12.6,7.6,30.03,WSW,251,10.0,18.0,80,0.00,CLR,FEW,0.00,WeatherDisplay:10.37,2013-02-01 13:29:00,
2013-02-01 08:39:00,12.7,7.7,30.06,WSW,257,13.0,13.0,80,0.00,CLR,FEW,0.00,WeatherDisplay:10.37,2013-02-01 13:39:00,
2013-02-01 08:49:00,12.6,7.0,30.06,West,260,14.0,22.0,78,0.00,CLR,FEW,0.00,WeatherDisplay:10.37,2013-02-01 13:49:00,
2013-02-01 08:59:00,12.6,6.4,30.06,West,266,16.0,16.0,76,0.00,CLR,FEW,0.00,WeatherDisplay:10.37,2013-02-01 13:59:00,
2013-02-01 09:04:00,12.4,6.3,30.06,West,259,15.0,18.0,76,0.00,CLR,FEW,0.00,WeatherDisplay:10.37,2013-02-01 14:04:00,
2013-02-01 09:09:00,12.6,6.4,30.06,West,262,15.0,18.0,76,0.00,CLR,FEW,0.00,WeatherDisplay:10.37,2013-02-01 14:09:00,
2013-02-01 09:19:00,14.0,7.8,30.06,WSW,256,14.0,19.0,76,0.00,CLR,FEW,0.00,WeatherDisplay:10.37,2013-02-01 14:19:00,
2013-02-01 09:29:00,13.5,7.0,30.06,WSW,251,14.0,21.0,75,0.00,CLR,FEW,0.00,WeatherDisplay:10.37,2013-02-01 14:29:00,
2013-02-01 09:34:00,14.0,7.5,30.06,WSW,256,15.0,16.0,75,0.00,CLR,FEW,0.00,WeatherDisplay:10.37,2013-02-01 14:34:00,
2013-02-01 09:39:00,14.0,7.5,30.08,WSW,254,14.0,14.0,75,0.00,CLR,FEW,0.00,WeatherDisplay:10.37,2013-02-01 14:39:00,
2013-02-01 09:44:00,14.0,7.2,30.08,WSW,241,14.0,14.0,74,0.00,CLR,FEW,0.00,WeatherDisplay:10.37,2013-02-01 14:44:00,
2013-02-01 09:49:00,15.1,8.3,30.08,SW,228,12.0,17.0,74,0.00,CLR,FEW,0.00,WeatherDisplay:10.37,2013-02-01 14:49:00,
2013-02-01 09:59:00,16.3,9.2,30.08,WSW,253,14.0,16.0,73,0.00,CLR,FEW,0.00,WeatherDisplay:10.37,2013-02-01 14:59:00,
2013-02-01 10:04:00,16.3,8.6,30.08,West,269,15.0,19.0,71,0.00,CLR,FEW,0.00,WeatherDisplay:10.37,2013-02-01 15:04:00,
2013-02-01 10:09:00,16.2,7.8,30.08,WSW,251,16.0,19.0,69,0.00,CLR,FEW,0.00,WeatherDisplay:10.37,2013-02-01 15:09:00,
2013-02-01 10:14:00,16.5,7.5,30.08,WSW,250,16.0,17.0,67,0.00,CLR,FEW,0.00,WeatherDisplay:10.37,2013-02-01 15:14:00,
2013-02-01 10:19:00,19.0,9.9,30.08,West,259,17.0,20.0,67,0.00,CLR,FEW,0.00,WeatherDisplay:10.37,2013-02-01 15:19:00,
2013-02-01 10:29:00,20.1,9.9,30.08,West,268,16.0,18.0,64,0.00,CLR,FEW,0.00,WeatherDisplay:10.37,2013-02-01 15:29:00,
2013-02-01 10:39:00,17.1,6.3,30.08,WSW,257,14.0,15.0,62,0.00,CLR,FEW,0.00,WeatherDisplay:10.37,2013-02-01 15:39:00,
2013-02-01 10:49:00,18.5,8.7,30.11,WNW,283,9.0,12.0,65,0.00,CLR,FEW,0.00,WeatherDisplay:10.37,2013-02-01 15:49:00,
2013-02-01 10:59:00,18.9,9.0,30.11,West,264,12.0,21.0,65,0.00,CLR,FEW,0.00,WeatherDisplay:10.37,2013-02-01 15:59:00,
2013-02-01 11:04:00,18.5,8.7,30.11,West,275,13.0,13.0,65,0.00,CLR,FEW,0.00,WeatherDisplay:10.37,2013-02-01 16:04:00,
2013-02-01 11:09:00,19.8,9.9,30.11,West,265,13.0,13.0,65,0.00,CLR,FEW,0.00,WeatherDisplay:10.37,2013-02-01 16:09:00,
2013-02-01 11:19:00,18.3,8.5,30.11,WSW,254,13.0,21.0,65,0.00,CLR,FEW,0.00,WeatherDisplay:10.37,2013-02-01 16:19:00,
2013-02-01 11:29:00,17.8,8.0,30.11,West,274,13.0,13.0,65,0.00,CLR,FEW,0.00,WeatherDisplay:10.37,2013-02-01 16:29:00,
2013-02-01 11:39:00,18.0,8.2,30.11,WSW,256,12.0,15.0,65,0.00,CLR,FEW,0.00,WeatherDisplay:10.37,2013-02-01 16:39:00,
2013-02-01 11:49:00,16.3,6.6,30.11,WSW,255,13.0,14.0,65,0.00,CLR,FEW,0.00,WeatherDisplay:10.37,2013-02-01 16:49:00,
2013-02-01 11:59:00,16.3,7.6,30.11,WSW,255,13.0,14.0,68,0.00,CLR,FEW,0.00,WeatherDisplay:10.37,2013-02-01 16:59:00,
2013-02-01 12:04:00,17.1,8.0,30.11,WSW,247,12.0,14.0,67,0.00,CLR,FEW,0.00,WeatherDisplay:10.37,2013-02-01 17:04:00,
2013-02-01 12:09:00,18.1,9.3,30.11,WSW,250,12.0,12.0,68,0.00,CLR,FEW,0.00,WeatherDisplay:10.37,2013-02-01 17:09:00,
2013-02-01 12:19:00,18.1,9.0,30.11,West,270,12.0,17.0,67,0.00,CLR,FEW,0.00,WeatherDisplay:10.37,2013-02-01 17:19:00,
2013-02-01 12:24:00,18.1,8.7,30.11,West,261,9.0,9.0,66,0.00,CLR,FEW,0.00,WeatherDisplay:10.37,2013-02-01 17:24:00,
2013-02-01 12:29:00,17.8,8.3,30.11,West,265,9.0,10.0,66,0.00,CLR,FEW,0.00,WeatherDisplay:10.37,2013-02-01 17:29:00,
2013-02-01 12:34:00,17.1,7.3,30.11,West,280,8.0,10.0,65,0.00,CLR,FEW,0.00,WeatherDisplay:10.37,2013-02-01 17:34:00,
2013-02-01 12:39:00,17.6,7.8,30.11,West,271,7.0,10.0,65,0.00,CLR,FEW,0.00,WeatherDisplay:10.37,2013-02-01 17:39:00,
2013-02-01 12:44:00,17.4,8.0,30.11,WSW,239,9.0,12.0,66,0.00,CLR,FEW,0.00,WeatherDisplay:10.37,2013-02-01 17:44:00,
2013-02-01 12:49:00,17.1,8.0,30.11,WSW,246,10.0,15.0,67,0.00,CLR,FEW,0.00,WeatherDisplay:10.37,2013-02-01 17:49:00,
2013-02-01 12:54:00,16.7,7.3,30.11,WSW,250,12.0,15.0,66,0.00,CLR,FEW,0.00,WeatherDisplay:10.37,2013-02-01 17:54:00,
2013-02-01 12:59:00,16.5,7.8,30.11,WSW,243,13.0,17.0,68,0.00,CLR,FEW,0.00,WeatherDisplay:10.37,2013-02-01 17:59:00,
2013-02-01 13:04:00,16.9,8.1,30.11,WSW,249,12.0,12.0,68,0.00,CLR,FEW,0.00,WeatherDisplay:10.37,2013-02-01 18:04:00,
2013-02-01 13:09:00,17.2,8.5,30.11,West,262,10.0,10.0,68,0.00,CLR,FEW,0.00,WeatherDisplay:10.37,2013-02-01 18:09:00,
2013-02-01 13:19:00,18.0,8.5,30.11,West,278,9.0,14.0,66,0.00,CLR,FEW,0.00,WeatherDisplay:10.37,2013-02-01 18:19:00,
2013-02-01 13:24:00,17.2,7.5,30.11,West,271,10.0,12.0,65,0.00,CLR,FEW,0.00,WeatherDisplay:10.37,2013-02-01 18:24:00,
2013-02-01 13:29:00,17.8,8.3,30.11,WNW,286,10.0,13.0,66,0.00,CLR,FEW,0.00,WeatherDisplay:10.37,2013-02-01 18:29:00,
2013-02-01 13:39:00,18.3,8.9,30.14,WSW,241,13.0,17.0,66,0.00,CLR,FEW,0.00,WeatherDisplay:10.37,2013-02-01 18:39:00,
2013-02-01 13:49:00,18.1,8.0,30.14,WSW,257,14.0,15.0,64,0.00,CLR,FEW,0.00,WeatherDisplay:10.37,2013-02-01 18:49:00,
2013-02-01 13:59:00,17.4,7.3,30.14,WSW,252,14.0,17.0,64,0.00,CLR,FEW,0.00,WeatherDisplay:10.37,2013-02-01 18:59:00,
2013-02-01 14:04:00,17.8,7.7,30.14,West,265,14.0,18.0,64,0.00,CLR,FEW,0.00,WeatherDisplay:10.37,2013-02-01 19:04:00,
2013-02-01 14:09:00,17.6,7.8,30.14,West,271,14.0,18.0,65,0.00,CLR,FEW,0.00,WeatherDisplay:10.37,2013-02-01 19:09:00,
2013-02-01 14:14:00,17.8,8.0,30.14,WSW,258,13.0,13.0,65,0.00,CLR,FEW,0.00,WeatherDisplay:10.37,2013-02-01 19:14:00,
2013-02-01 14:19:00,17.1,7.3,30.14,WSW,240,14.0,22.0,65,0.00,CLR,FEW,0.00,WeatherDisplay:10.37,2013-02-01 19:19:00,
2013-02-01 14:29:00,16.9,8.8,30.14,WSW,246,13.0,15.0,70,0.00,CLR,FEW,0.00,WeatherDisplay:10.37,2013-02-01 19:29:00,
2013-02-01 14:34:00,17.4,9.3,30.14,WSW,247,15.0,18.0,70,0.00,CLR,FEW,0.00,WeatherDisplay:10.37,2013-02-01 19:34:00,
2013-02-01 14:39:00,18.0,9.5,30.14,West,267,14.0,14.0,69,0.00,CLR,FEW,0.00,WeatherDisplay:10.37,2013-02-01 19:39:00,
2013-02-01 14:44:00,18.1,9.7,30.14,West,277,12.0,14.0,69,0.00,CLR,FEW,0.00,WeatherDisplay:10.37,2013-02-01 19:44:00,
2013-02-01 14:49:00,17.4,9.0,30.14,WSW,241,13.0,17.0,69,0.00,CLR,FEW,0.00,WeatherDisplay:10.37,2013-02-01 19:49:00,
2013-02-01 14:54:00,18.1,9.0,30.14,WSW,255,13.0,17.0,67,0.00,CLR,FEW,0.00,WeatherDisplay:10.37,2013-02-01 19:54:00,
2013-02-01 14:59:00,18.7,9.5,30.14,WNW,294,12.0,12.0,67,0.00,CLR,FEW,0.00,WeatherDisplay:10.37,2013-02-01 19:59:00,
2013-02-01 15:04:00,18.1,8.7,30.14,West,280,12.0,15.0,66,0.00,CLR,FEW,0.00,WeatherDisplay:10.37,2013-02-01 20:04:00,
2013-02-01 15:09:00,17.6,7.5,30.14,West,260,12.0,18.0,64,0.00,CLR,FEW,0.00,WeatherDisplay:10.37,2013-02-01 20:09:00,
2013-02-01 15:14:00,17.2,6.4,30.14,West,267,13.0,18.0,62,0.00,CLR,FEW,0.00,WeatherDisplay:10.37,2013-02-01 20:14:00,
2013-02-01 15:19:00,18.0,7.1,30.14,West,260,13.0,16.0,62,0.00,CLR,FEW,0.00,WeatherDisplay:10.37,2013-02-01 20:19:00,
2013-02-01 15:29:00,17.8,7.7,30.14,WSW,242,13.0,14.0,64,0.00,CLR,FEW,0.00,WeatherDisplay:10.37,2013-02-01 20:29:00,
2013-02-01 15:39:00,17.4,8.0,30.14,WSW,244,14.0,15.0,66,0.00,CLR,FEW,0.00,WeatherDisplay:10.37,2013-02-01 20:39:00,
2013-02-01 15:49:00,17.4,9.0,30.14,WSW,241,15.0,19.0,69,0.00,CLR,FEW,0.00,WeatherDisplay:10.37,2013-02-01 20:49:00,
2013-02-01 15:59:00,18.0,9.5,30.14,WSW,253,13.0,13.0,69,0.00,CLR,FEW,0.00,WeatherDisplay:10.37,2013-02-01 20:59:00,
2013-02-01 16:04:00,17.8,9.0,30.14,West,265,12.0,12.0,68,0.00,CLR,FEW,0.00,WeatherDisplay:10.37,2013-02-01 21:04:00,
2013-02-01 16:09:00,17.4,8.0,30.14,West,276,10.0,14.0,66,0.00,CLR,FEW,0.00,WeatherDisplay:10.37,2013-02-01 21:09:00,
2013-02-01 16:19:00,16.3,7.3,30.14,WSW,248,12.0,14.0,67,0.00,CLR,FEW,0.00,WeatherDisplay:10.37,2013-02-01 21:19:00,
2013-02-01 16:24:00,16.5,7.1,30.14,SW,236,13.0,16.0,66,0.00,CLR,FEW,0.00,WeatherDisplay:10.37,2013-02-01 21:24:00,
2013-02-01 16:29:00,16.3,7.0,30.14,SW,234,13.0,16.0,66,0.00,CLR,FEW,0.00,WeatherDisplay:10.37,2013-02-01 21:29:00,
2013-02-01 16:34:00,16.7,8.3,30.14,WSW,238,14.0,14.0,69,0.00,CLR,FEW,0.00,WeatherDisplay:10.37,2013-02-01 21:34:00,
2013-02-01 16:39:00,16.5,8.1,30.17,WSW,238,13.0,13.0,69,0.00,CLR,FEW,0.00,WeatherDisplay:10.37,2013-02-01 21:39:00,
2013-02-01 16:45:00,16.5,8.1,30.17,WSW,245,13.0,15.0,69,0.00,CLR,FEW,0.00,WeatherDisplay:10.37,2013-02-01 21:45:00,
2013-02-01 16:54:00,16.9,8.5,30.14,WSW,243,12.0,13.0,69,0.00,CLR,FEW,0.00,WeatherDisplay:10.37,2013-02-01 21:54:00,
2013-02-01 16:59:00,16.9,8.5,30.17,WSW,246,12.0,13.0,69,0.00,CLR,FEW,0.00,WeatherDisplay:10.37,2013-02-01 21:59:00,
2013-02-01 17:04:00,16.9,8.8,30.17,West,261,10.0,12.0,70,0.00,CLR,FEW,0.00,WeatherDisplay:10.37,2013-02-01 22:04:00,
2013-02-01 17:09:00,16.7,8.3,30.17,West,261,10.0,15.0,69,0.00,CLR,FEW,0.00,WeatherDisplay:10.37,2013-02-01 22:09:00,
2013-02-01 17:19:00,16.2,8.1,30.17,WSW,251,10.0,14.0,70,0.00,CLR,FEW,0.00,WeatherDisplay:10.37,2013-02-01 22:19:00,
2013-02-01 17:29:00,16.0,7.3,30.17,WSW,258,10.0,12.0,68,0.00,CLR,FEW,0.00,WeatherDisplay:10.37,2013-02-01 22:29:00,
2013-02-01 17:34:00,16.0,6.9,30.17,WSW,247,9.0,12.0,67,0.00,CLR,FEW,0.00,WeatherDisplay:10.37,2013-02-01 22:34:00,
2013-02-01 17:39:00,15.8,6.4,30.17,WSW,252,9.0,16.0,66,0.00,CLR,FEW,0.00,WeatherDisplay:10.37,2013-02-01 22:39:00,
2013-02-01 17:49:00,16.0,6.3,30.17,West,261,13.0,20.0,65,0.00,CLR,FEW,0.00,WeatherDisplay:10.37,2013-02-01 22:49:00,
2013-02-01 17:59:00,15.6,5.9,30.17,WSW,254,16.0,19.0,65,0.00,CLR,FEW,0.00,WeatherDisplay:10.37,2013-02-01 22:59:00,
2013-02-01 18:04:00,15.6,5.6,30.17,WSW,252,14.0,15.0,64,0.00,CLR,FEW,0.00,WeatherDisplay:10.37,2013-02-01 23:04:00,
2013-02-01 18:09:00,15.4,5.8,30.17,West,261,13.0,13.0,65,0.00,CLR,FEW,0.00,WeatherDisplay:10.37,2013-02-01 23:09:00,
2013-02-01 18:19:00,15.4,5.8,30.17,WSW,244,9.0,13.0,65,0.00,CLR,FEW,0.00,WeatherDisplay:10.37,2013-02-01 23:19:00,
2013-02-01 18:29:00,15.6,6.3,30.17,SW,234,8.0,8.0,66,0.00,CLR,FEW,0.00,WeatherDisplay:10.37,2013-02-01 23:29:00,
2013-02-01 18:34:00,15.3,5.6,30.17,WSW,242,7.0,11.0,65,0.00,CLR,FEW,0.00,WeatherDisplay:10.37,2013-02-01 23:34:00,
2013-02-01 18:39:00,15.3,5.3,30.17,WSW,245,8.0,20.0,64,0.00,CLR,FEW,0.00,WeatherDisplay:10.37,2013-02-01 23:39:00,
2013-02-01 18:44:00,15.4,5.4,30.17,WSW,252,10.0,19.0,64,0.00,CLR,FEW,0.00,WeatherDisplay:10.37,2013-02-01 23:44:00,
2013-02-01 18:49:00,15.4,5.8,30.17,WSW,248,13.0,17.0,65,0.00,CLR,FEW,0.00,WeatherDisplay:10.37,2013-02-01 23:49:00,
2013-02-01 18:59:00,15.6,6.3,30.17,WSW,242,14.0,17.0,66,0.00,CLR,FEW,0.00,WeatherDisplay:10.37,2013-02-01 23:59:00,
2013-02-01 19:04:00,15.3,5.9,30.17,WSW,238,15.0,17.0,66,0.00,CLR,FEW,0.00,WeatherDisplay:10.37,2013-02-02 00:04:00,
2013-02-01 19:09:00,15.6,5.9,30.17,WSW,238,15.0,15.0,65,0.00,CLR,FEW,0.00,WeatherDisplay:10.37,2013-02-02 00:09:00,
2013-02-01 19:19:00,15.1,5.1,30.17,West,259,14.0,15.0,64,0.00,CLR,FEW,0.00,WeatherDisplay:10.37,2013-02-02 00:19:00,
2013-02-01 19:29:00,14.9,4.9,30.17,WSW,239,14.0,15.0,64,0.00,CLR,FEW,0.00,WeatherDisplay:10.37,2013-02-02 00:29:00,
2013-02-01 19:34:00,14.9,4.9,30.17,WSW,242,15.0,18.0,64,0.00,CLR,FEW,0.00,WeatherDisplay:10.37,2013-02-02 00:34:00,
2013-02-01 19:39:00,15.1,5.1,30.17,WSW,237,15.0,18.0,64,0.00,CLR,FEW,0.00,WeatherDisplay:10.37,2013-02-02 00:39:00,
2013-02-01 19:49:00,14.7,5.1,30.17,SW,229,14.0,15.0,65,0.00,CLR,FEW,0.00,WeatherDisplay:10.37,2013-02-02 00:49:00,
2013-02-01 19:59:00,14.9,5.2,30.17,SW,229,12.0,20.0,65,0.00,CLR,FEW,0.00,WeatherDisplay:10.37,2013-02-02 00:59:00,
2013-02-01 20:04:00,14.5,4.6,30.17,SW,226,13.0,20.0,64,0.00,CLR,FEW,0.00,WeatherDisplay:10.37,2013-02-02 01:04:00,
2013-02-01 20:09:00,14.5,4.6,30.17,SW,227,12.0,14.0,64,0.00,CLR,FEW,0.00,WeatherDisplay:10.37,2013-02-02 01:09:00,
2013-02-01 20:19:00,14.7,5.1,30.17,WSW,244,12.0,14.0,65,0.00,CLR,FEW,0.00,WeatherDisplay:10.37,2013-02-02 01:19:00,
2013-02-01 20:29:00,15.6,6.6,30.17,SW,235,12.0,13.0,67,0.00,CLR,FEW,0.00,WeatherDisplay:10.37,2013-02-02 01:29:00,
2013-02-01 20:34:00,14.7,6.1,30.20,WSW,241,12.0,13.0,68,0.00,CLR,FEW,0.00,WeatherDisplay:10.37,2013-02-02 01:34:00,
2013-02-01 20:39:00,14.9,6.2,30.20,WSW,243,13.0,15.0,68,0.00,CLR,FEW,0.00,WeatherDisplay:10.37,2013-02-02 01:39:00,
2013-02-01 20:49:00,13.8,4.9,30.20,SW,231,13.0,20.0,67,0.00,CLR,FEW,0.00,WeatherDisplay:10.37,2013-02-02 01:49:00,
2013-02-01 20:59:00,14.0,5.1,30.20,SW,229,14.0,17.0,67,0.00,CLR,FEW,0.00,WeatherDisplay:10.37,2013-02-02 01:59:00,
2013-02-01 21:04:00,14.0,4.7,30.20,SW,227,15.0,20.0,66,0.00,CLR,FEW,0.00,WeatherDisplay:10.37,2013-02-02 02:04:00,
2013-02-01 21:09:00,13.6,4.4,30.20,SW,224,14.0,14.0,66,0.00,CLR,FEW,0.00,WeatherDisplay:10.37,2013-02-02 02:09:00,
2013-02-01 21:19:00,14.2,5.5,30.20,SW,215,12.0,12.0,68,0.00,CLR,FEW,0.00,WeatherDisplay:10.37,2013-02-02 02:19:00,
2013-02-01 21:29:00,14.0,5.1,30.20,SW,221,9.0,12.0,67,0.00,CLR,FEW,0.00,WeatherDisplay:10.37,2013-02-02 02:29:00,
2013-02-01 21:39:00,14.4,5.7,30.20,WSW,247,12.0,14.0,68,0.00,CLR,FEW,0.00,WeatherDisplay:10.37,2013-02-02 02:39:00,
2013-02-01 21:49:00,13.6,5.3,30.20,SW,227,12.0,15.0,69,0.00,CLR,FEW,0.00,WeatherDisplay:10.37,2013-02-02 02:49:00,
2013-02-01 21:59:00,13.5,5.2,30.20,SW,217,12.0,14.0,69,0.00,CLR,FEW,0.00,WeatherDisplay:10.37,2013-02-02 02:59:00,
2013-02-01 22:04:00,13.8,5.2,30.20,SW,221,10.0,11.0,68,0.00,CLR,FEW,0.00,WeatherDisplay:10.37,2013-02-02 03:04:00,
2013-02-01 22:09:00,13.1,4.5,30.20,SW,220,10.0,12.0,68,0.00,CLR,FEW,0.00,WeatherDisplay:10.37,2013-02-02 03:09:00,
2013-02-01 22:19:00,13.5,4.9,30.20,SW,226,12.0,16.0,68,0.00,CLR,FEW,0.00,WeatherDisplay:10.37,2013-02-02 03:19:00,
2013-02-01 22:24:00,13.3,4.4,30.20,SW,219,13.0,16.0,67,0.00,CLR,FEW,0.00,WeatherDisplay:10.37,2013-02-02 03:24:00,
2013-02-01 22:29:00,13.6,4.7,30.20,SW,218,13.0,15.0,67,0.00,CLR,FEW,0.00,WeatherDisplay:10.37,2013-02-02 03:29:00,
2013-02-01 22:39:00,13.6,5.0,30.17,SW,223,13.0,13.0,68,0.00,CLR,FEW,0.00,WeatherDisplay:10.37,2013-02-02 03:39:00,
2013-02-01 22:49:00,13.6,5.3,30.17,SSW,207,9.0,9.0,69,0.00,CLR,FEW,0.00,WeatherDisplay:10.37,2013-02-02 03:49:00,
2013-02-01 22:59:00,13.6,5.3,30.17,SW,226,7.0,11.0,69,0.00,CLR,FEW,0.00,WeatherDisplay:10.37,2013-02-02 03:59:00,
2013-02-01 23:04:00,14.2,5.9,30.17,SW,215,7.0,13.0,69,0.00,CLR,FEW,0.00,WeatherDisplay:10.37,2013-02-02 04:04:00,
2013-02-01 23:09:00,14.0,5.7,30.17,SSW,211,8.0,13.0,69,0.00,CLR,FEW,0.00,WeatherDisplay:10.37,2013-02-02 04:09:00,
2013-02-01 23:19:00,13.6,5.7,30.17,SW,223,8.0,10.0,70,0.00,CLR,FEW,0.00,WeatherDisplay:10.37,2013-02-02 04:19:00,
2013-02-01 23:24:00,14.2,6.2,30.17,SW,236,8.0,10.0,70,0.00,CLR,FEW,0.00,WeatherDisplay:10.37,2013-02-02 04:24:00,
2013-02-01 23:29:00,14.0,6.0,30.17,SW,232,7.0,11.0,70,0.00,CLR,FEW,0.00,WeatherDisplay:10.37,2013-02-02 04:29:00,
2013-02-01 23:39:00,14.4,6.4,30.17,SW,228,9.0,11.0,70,0.00,CLR,FEW,0.00,WeatherDisplay:10.37,2013-02-02 04:39:00,
2013-02-01 23:49:00,14.2,5.9,30.17,SW,224,9.0,11.0,69,0.00,CLR,FEW,0.00,WeatherDisplay:10.37,2013-02-02 04:49:00,
2013-02-01 23:59:00,13.8,5.2,30.17,SW,226,10.0,13.0,68,0.00,CLR,FEW,0.00,WeatherDisplay:10.37,2013-02-02 04:59:00,